sensor_id;sensor_type;location;lat;lon;timestamp;P1;durP1;ratioP1;P2;durP2;ratioP2
22164;SDS011;11248;52.512;13.520;2022-08-21T00:00:18;3.80;;;3.42;;
22164;SDS011;11248;52.512;13.520;2022-08-21T00:02:49;4.80;;;3.75;;
22164;SDS011;11248;52.512;13.520;2022-08-21T00:05:16;4.85;;;3.67;;
22164;SDS011;11248;52.512;13.520;2022-08-21T00:07:42;4.60;;;3.53;;
22164;SDS011;11248;52.512;13.520;2022-08-21T00:10:08;4.55;;;3.85;;
22164;SDS011;11248;52.512;13.520;2022-08-21T00:12:35;5.63;;;4.38;;
22164;SDS011;11248;52.512;13.520;2022-08-21T00:15:00;4.65;;;3.90;;
22164;SDS011;11248;52.512;13.520;2022-08-21T00:17:26;5.75;;;3.85;;
22164;SDS011;11248;52.512;13.520;2022-08-21T00:19:52;4.60;;;3.75;;
22164;SDS011;11248;52.512;13.520;2022-08-21T00:22:18;4.35;;;3.95;;
22164;SDS011;11248;52.512;13.520;2022-08-21T00:24:44;5.93;;;4.55;;
22164;SDS011;11248;52.512;13.520;2022-08-21T00:27:10;4.25;;;3.85;;
22164;SDS011;11248;52.512;13.520;2022-08-21T00:29:36;6.15;;;4.13;;
22164;SDS011;11248;52.512;13.520;2022-08-21T00:32:02;5.10;;;4.03;;
22164;SDS011;11248;52.512;13.520;2022-08-21T00:34:28;5.22;;;3.80;;
22164;SDS011;11248;52.512;13.520;2022-08-21T00:36:54;4.10;;;3.70;;
22164;SDS011;11248;52.512;13.520;2022-08-21T00:39:19;4.60;;;3.72;;
22164;SDS011;11248;52.512;13.520;2022-08-21T00:41:45;6.47;;;3.97;;
22164;SDS011;11248;52.512;13.520;2022-08-21T00:44:12;4.93;;;3.80;;
22164;SDS011;11248;52.512;13.520;2022-08-21T00:46:38;5.05;;;3.90;;
22164;SDS011;11248;52.512;13.520;2022-08-21T00:49:05;4.45;;;3.45;;
22164;SDS011;11248;52.512;13.520;2022-08-21T00:51:33;4.32;;;3.70;;
22164;SDS011;11248;52.512;13.520;2022-08-21T00:54:00;4.43;;;4.03;;
22164;SDS011;11248;52.512;13.520;2022-08-21T00:56:26;4.10;;;3.70;;
22164;SDS011;11248;52.512;13.520;2022-08-21T00:58:53;5.25;;;3.65;;
22164;SDS011;11248;52.512;13.520;2022-08-21T01:01:19;6.20;;;4.10;;
22164;SDS011;11248;52.512;13.520;2022-08-21T01:03:45;4.15;;;3.75;;
22164;SDS011;11248;52.512;13.520;2022-08-21T01:06:11;4.55;;;3.90;;
22164;SDS011;11248;52.512;13.520;2022-08-21T01:08:37;4.40;;;3.67;;
22164;SDS011;11248;52.512;13.520;2022-08-21T01:11:03;3.75;;;3.30;;
22164;SDS011;11248;52.512;13.520;2022-08-21T01:13:30;4.60;;;3.55;;
22164;SDS011;11248;52.512;13.520;2022-08-21T01:15:58;3.97;;;3.58;;
22164;SDS011;11248;52.512;13.520;2022-08-21T01:18:25;4.28;;;3.60;;
22164;SDS011;11248;52.512;13.520;2022-08-21T01:20:58;4.65;;;3.53;;
22164;SDS011;11248;52.512;13.520;2022-08-21T01:23:56;4.85;;;3.88;;
22164;SDS011;11248;52.512;13.520;2022-08-21T01:26:24;5.75;;;3.80;;
22164;SDS011;11248;52.512;13.520;2022-08-21T01:29:02;4.32;;;3.85;;
22164;SDS011;11248;52.512;13.520;2022-08-21T01:31:30;4.43;;;3.67;;
22164;SDS011;11248;52.512;13.520;2022-08-21T01:33:57;4.10;;;3.70;;
22164;SDS011;11248;52.512;13.520;2022-08-21T01:36:24;3.80;;;3.45;;
22164;SDS011;11248;52.512;13.520;2022-08-21T01:38:50;4.55;;;3.53;;
22164;SDS011;11248;52.512;13.520;2022-08-21T01:41:16;3.67;;;3.38;;
22164;SDS011;11248;52.512;13.520;2022-08-21T01:43:43;4.88;;;3.75;;
22164;SDS011;11248;52.512;13.520;2022-08-21T01:46:10;5.25;;;3.95;;
22164;SDS011;11248;52.512;13.520;2022-08-21T01:48:36;4.53;;;3.33;;
22164;SDS011;11248;52.512;13.520;2022-08-21T01:51:03;3.40;;;3.10;;
22164;SDS011;11248;52.512;13.520;2022-08-21T01:53:29;4.70;;;3.35;;
22164;SDS011;11248;52.512;13.520;2022-08-21T01:55:55;5.55;;;3.30;;
22164;SDS011;11248;52.512;13.520;2022-08-21T01:58:21;5.35;;;3.50;;
22164;SDS011;11248;52.512;13.520;2022-08-21T02:00:47;6.93;;;4.03;;
22164;SDS011;11248;52.512;13.520;2022-08-21T02:03:14;4.85;;;4.03;;
22164;SDS011;11248;52.512;13.520;2022-08-21T02:05:40;5.03;;;3.22;;
22164;SDS011;11248;52.512;13.520;2022-08-21T02:08:06;5.43;;;3.40;;
22164;SDS011;11248;52.512;13.520;2022-08-21T02:10:32;4.38;;;3.40;;
22164;SDS011;11248;52.512;13.520;2022-08-21T02:12:58;5.35;;;3.13;;
22164;SDS011;11248;52.512;13.520;2022-08-21T02:15:25;4.35;;;3.60;;
22164;SDS011;11248;52.512;13.520;2022-08-21T02:17:52;5.30;;;3.40;;
22164;SDS011;11248;52.512;13.520;2022-08-21T02:20:20;3.97;;;3.17;;
22164;SDS011;11248;52.512;13.520;2022-08-21T02:22:46;3.38;;;3.08;;
22164;SDS011;11248;52.512;13.520;2022-08-21T02:25:13;3.90;;;3.47;;
22164;SDS011;11248;52.512;13.520;2022-08-21T02:27:40;4.07;;;3.00;;
22164;SDS011;11248;52.512;13.520;2022-08-21T02:30:06;4.03;;;3.17;;
22164;SDS011;11248;52.512;13.520;2022-08-21T02:32:32;7.05;;;3.45;;
22164;SDS011;11248;52.512;13.520;2022-08-21T02:34:58;4.10;;;3.00;;
22164;SDS011;11248;52.512;13.520;2022-08-21T02:37:24;3.97;;;3.42;;
22164;SDS011;11248;52.512;13.520;2022-08-21T02:39:50;4.47;;;3.00;;
22164;SDS011;11248;52.512;13.520;2022-08-21T02:42:17;4.38;;;3.70;;
22164;SDS011;11248;52.512;13.520;2022-08-21T02:44:42;6.22;;;3.33;;
22164;SDS011;11248;52.512;13.520;2022-08-21T02:47:08;4.07;;;3.47;;
22164;SDS011;11248;52.512;13.520;2022-08-21T02:49:34;5.20;;;3.28;;
22164;SDS011;11248;52.512;13.520;2022-08-21T02:52:00;3.42;;;3.13;;
22164;SDS011;11248;52.512;13.520;2022-08-21T02:54:26;4.57;;;3.13;;
22164;SDS011;11248;52.512;13.520;2022-08-21T02:56:52;3.60;;;3.15;;
22164;SDS011;11248;52.512;13.520;2022-08-21T02:59:18;5.05;;;3.17;;
22164;SDS011;11248;52.512;13.520;2022-08-21T03:01:44;4.50;;;3.30;;
22164;SDS011;11248;52.512;13.520;2022-08-21T03:04:10;4.20;;;3.38;;
22164;SDS011;11248;52.512;13.520;2022-08-21T03:06:36;4.03;;;3.05;;
22164;SDS011;11248;52.512;13.520;2022-08-21T03:09:02;6.63;;;3.20;;
22164;SDS011;11248;52.512;13.520;2022-08-21T03:11:28;4.95;;;3.20;;
22164;SDS011;11248;52.512;13.520;2022-08-21T03:13:54;3.28;;;2.90;;
22164;SDS011;11248;52.512;13.520;2022-08-21T03:16:20;3.90;;;2.60;;
22164;SDS011;11248;52.512;13.520;2022-08-21T03:18:46;7.63;;;3.10;;
22164;SDS011;11248;52.512;13.520;2022-08-21T03:21:12;6.05;;;2.95;;
22164;SDS011;11248;52.512;13.520;2022-08-21T03:23:38;3.90;;;2.45;;
22164;SDS011;11248;52.512;13.520;2022-08-21T03:26:05;3.30;;;2.30;;
22164;SDS011;11248;52.512;13.520;2022-08-21T03:28:31;3.00;;;2.70;;
22164;SDS011;11248;52.512;13.520;2022-08-21T03:30:57;2.83;;;2.45;;
22164;SDS011;11248;52.512;13.520;2022-08-21T03:33:23;3.92;;;2.75;;
22164;SDS011;11248;52.512;13.520;2022-08-21T03:36:00;5.25;;;2.55;;
22164;SDS011;11248;52.512;13.520;2022-08-21T03:38:28;4.07;;;2.53;;
22164;SDS011;11248;52.512;13.520;2022-08-21T03:40:54;2.80;;;2.40;;
22164;SDS011;11248;52.512;13.520;2022-08-21T03:43:21;5.07;;;2.40;;
22164;SDS011;11248;52.512;13.520;2022-08-21T03:45:47;4.40;;;2.25;;
22164;SDS011;11248;52.512;13.520;2022-08-21T03:48:13;3.33;;;2.50;;
22164;SDS011;11248;52.512;13.520;2022-08-21T03:50:40;4.47;;;2.53;;
22164;SDS011;11248;52.512;13.520;2022-08-21T03:53:06;5.30;;;2.40;;
22164;SDS011;11248;52.512;13.520;2022-08-21T03:55:32;2.63;;;2.28;;
22164;SDS011;11248;52.512;13.520;2022-08-21T03:57:58;3.63;;;2.35;;
22164;SDS011;11248;52.512;13.520;2022-08-21T04:00:24;2.67;;;2.10;;
22164;SDS011;11248;52.512;13.520;2022-08-21T04:02:51;3.65;;;2.00;;
22164;SDS011;11248;52.512;13.520;2022-08-21T04:05:17;3.22;;;2.50;;
22164;SDS011;11248;52.512;13.520;2022-08-21T04:07:55;2.47;;;2.05;;
22164;SDS011;11248;52.512;13.520;2022-08-21T04:10:22;6.88;;;2.80;;
22164;SDS011;11248;52.512;13.520;2022-08-21T04:12:49;4.65;;;2.97;;
22164;SDS011;11248;52.512;13.520;2022-08-21T04:15:15;3.10;;;2.17;;
22164;SDS011;11248;52.512;13.520;2022-08-21T04:17:41;2.65;;;2.38;;
22164;SDS011;11248;52.512;13.520;2022-08-21T04:20:08;4.22;;;2.28;;
22164;SDS011;11248;52.512;13.520;2022-08-21T04:22:34;4.85;;;3.15;;
22164;SDS011;11248;52.512;13.520;2022-08-21T04:24:59;2.80;;;2.20;;
22164;SDS011;11248;52.512;13.520;2022-08-21T04:27:25;3.17;;;2.50;;
22164;SDS011;11248;52.512;13.520;2022-08-21T04:29:51;4.70;;;3.03;;
22164;SDS011;11248;52.512;13.520;2022-08-21T04:32:23;3.58;;;2.40;;
22164;SDS011;11248;52.512;13.520;2022-08-21T04:34:50;3.00;;;2.22;;
22164;SDS011;11248;52.512;13.520;2022-08-21T04:37:16;2.65;;;2.03;;
22164;SDS011;11248;52.512;13.520;2022-08-21T04:39:42;2.78;;;2.25;;
22164;SDS011;11248;52.512;13.520;2022-08-21T04:42:08;4.88;;;3.15;;
22164;SDS011;11248;52.512;13.520;2022-08-21T04:44:34;3.97;;;2.25;;
22164;SDS011;11248;52.512;13.520;2022-08-21T04:47:00;4.45;;;1.95;;
22164;SDS011;11248;52.512;13.520;2022-08-21T04:49:26;4.63;;;2.30;;
22164;SDS011;11248;52.512;13.520;2022-08-21T04:51:52;2.65;;;2.03;;
22164;SDS011;11248;52.512;13.520;2022-08-21T04:54:19;4.13;;;2.17;;
22164;SDS011;11248;52.512;13.520;2022-08-21T04:57:01;6.45;;;2.13;;
22164;SDS011;11248;52.512;13.520;2022-08-21T04:59:39;2.20;;;1.85;;
22164;SDS011;11248;52.512;13.520;2022-08-21T05:02:06;3.85;;;1.95;;
22164;SDS011;11248;52.512;13.520;2022-08-21T05:04:33;6.15;;;2.35;;
22164;SDS011;11248;52.512;13.520;2022-08-21T05:07:02;4.25;;;1.98;;
22164;SDS011;11248;52.512;13.520;2022-08-21T05:09:30;3.05;;;1.90;;
22164;SDS011;11248;52.512;13.520;2022-08-21T05:11:57;4.38;;;1.77;;
22164;SDS011;11248;52.512;13.520;2022-08-21T05:14:23;3.00;;;1.95;;
22164;SDS011;11248;52.512;13.520;2022-08-21T05:16:51;4.07;;;2.20;;
22164;SDS011;11248;52.512;13.520;2022-08-21T05:19:17;4.25;;;1.70;;
22164;SDS011;11248;52.512;13.520;2022-08-21T05:21:43;5.00;;;1.92;;
22164;SDS011;11248;52.512;13.520;2022-08-21T05:24:09;2.97;;;2.00;;
22164;SDS011;11248;52.512;13.520;2022-08-21T05:26:36;3.42;;;1.92;;
22164;SDS011;11248;52.512;13.520;2022-08-21T05:29:02;2.67;;;1.80;;
22164;SDS011;11248;52.512;13.520;2022-08-21T05:31:28;2.45;;;2.00;;
22164;SDS011;11248;52.512;13.520;2022-08-21T05:33:55;6.03;;;2.40;;
22164;SDS011;11248;52.512;13.520;2022-08-21T05:36:21;3.03;;;1.70;;
22164;SDS011;11248;52.512;13.520;2022-08-21T05:38:47;3.33;;;2.00;;
22164;SDS011;11248;52.512;13.520;2022-08-21T05:41:13;3.45;;;1.70;;
22164;SDS011;11248;52.512;13.520;2022-08-21T05:43:38;4.75;;;1.95;;
22164;SDS011;11248;52.512;13.520;2022-08-21T05:46:05;2.30;;;1.50;;
22164;SDS011;11248;52.512;13.520;2022-08-21T05:48:31;4.70;;;2.08;;
22164;SDS011;11248;52.512;13.520;2022-08-21T05:50:58;3.42;;;1.83;;
22164;SDS011;11248;52.512;13.520;2022-08-21T05:53:29;3.50;;;1.75;;
22164;SDS011;11248;52.512;13.520;2022-08-21T05:55:54;3.33;;;1.95;;
22164;SDS011;11248;52.512;13.520;2022-08-21T05:58:21;5.07;;;1.83;;
22164;SDS011;11248;52.512;13.520;2022-08-21T06:00:48;3.85;;;1.70;;
22164;SDS011;11248;52.512;13.520;2022-08-21T06:03:24;4.50;;;1.60;;
22164;SDS011;11248;52.512;13.520;2022-08-21T06:05:51;6.38;;;1.63;;
22164;SDS011;11248;52.512;13.520;2022-08-21T06:08:18;3.03;;;1.70;;
22164;SDS011;11248;52.512;13.520;2022-08-21T06:10:44;3.22;;;1.60;;
22164;SDS011;11248;52.512;13.520;2022-08-21T06:13:10;4.80;;;1.80;;
22164;SDS011;11248;52.512;13.520;2022-08-21T06:15:36;2.70;;;1.70;;
22164;SDS011;11248;52.512;13.520;2022-08-21T06:18:02;4.57;;;2.22;;
22164;SDS011;11248;52.512;13.520;2022-08-21T06:20:28;3.38;;;1.63;;
22164;SDS011;11248;52.512;13.520;2022-08-21T06:22:54;3.00;;;1.63;;
22164;SDS011;11248;52.512;13.520;2022-08-21T06:25:20;2.50;;;1.50;;
22164;SDS011;11248;52.512;13.520;2022-08-21T06:27:46;7.15;;;1.60;;
22164;SDS011;11248;52.512;13.520;2022-08-21T06:30:13;3.35;;;1.70;;
22164;SDS011;11248;52.512;13.520;2022-08-21T06:32:39;4.50;;;1.95;;
22164;SDS011;11248;52.512;13.520;2022-08-21T06:35:05;6.55;;;2.08;;
22164;SDS011;11248;52.512;13.520;2022-08-21T06:37:31;3.95;;;1.50;;
22164;SDS011;11248;52.512;13.520;2022-08-21T06:39:57;4.25;;;1.77;;
22164;SDS011;11248;52.512;13.520;2022-08-21T06:42:23;3.80;;;1.77;;
22164;SDS011;11248;52.512;13.520;2022-08-21T06:44:49;4.45;;;1.40;;
22164;SDS011;11248;52.512;13.520;2022-08-21T06:47:15;4.15;;;1.35;;
22164;SDS011;11248;52.512;13.520;2022-08-21T06:49:41;5.00;;;1.42;;
22164;SDS011;11248;52.512;13.520;2022-08-21T06:52:10;3.30;;;1.60;;
22164;SDS011;11248;52.512;13.520;2022-08-21T06:54:37;6.72;;;1.60;;
22164;SDS011;11248;52.512;13.520;2022-08-21T06:57:03;3.03;;;1.60;;
22164;SDS011;11248;52.512;13.520;2022-08-21T06:59:29;3.85;;;1.40;;
22164;SDS011;11248;52.512;13.520;2022-08-21T07:01:55;4.40;;;1.55;;
22164;SDS011;11248;52.512;13.520;2022-08-21T07:04:21;3.75;;;1.20;;
22164;SDS011;11248;52.512;13.520;2022-08-21T07:06:47;1.30;;;1.00;;
22164;SDS011;11248;52.512;13.520;2022-08-21T07:09:13;3.53;;;1.63;;
22164;SDS011;11248;52.512;13.520;2022-08-21T07:11:39;5.45;;;1.67;;
22164;SDS011;11248;52.512;13.520;2022-08-21T07:14:05;3.92;;;1.33;;
22164;SDS011;11248;52.512;13.520;2022-08-21T07:16:31;2.55;;;1.10;;
22164;SDS011;11248;52.512;13.520;2022-08-21T07:18:57;1.65;;;1.15;;
22164;SDS011;11248;52.512;13.520;2022-08-21T07:21:23;1.67;;;1.20;;
22164;SDS011;11248;52.512;13.520;2022-08-21T07:23:50;4.85;;;1.67;;
22164;SDS011;11248;52.512;13.520;2022-08-21T07:26:16;2.10;;;1.20;;
22164;SDS011;11248;52.512;13.520;2022-08-21T07:28:43;2.83;;;1.30;;
22164;SDS011;11248;52.512;13.520;2022-08-21T07:31:09;5.05;;;1.50;;
22164;SDS011;11248;52.512;13.520;2022-08-21T07:33:38;6.22;;;1.45;;
22164;SDS011;11248;52.512;13.520;2022-08-21T07:36:04;2.60;;;1.00;;
22164;SDS011;11248;52.512;13.520;2022-08-21T07:38:30;3.90;;;1.33;;
22164;SDS011;11248;52.512;13.520;2022-08-21T07:40:56;2.13;;;1.10;;
22164;SDS011;11248;52.512;13.520;2022-08-21T07:43:24;2.25;;;1.23;;
22164;SDS011;11248;52.512;13.520;2022-08-21T07:45:50;2.90;;;1.13;;
22164;SDS011;11248;52.512;13.520;2022-08-21T07:48:16;3.40;;;1.25;;
22164;SDS011;11248;52.512;13.520;2022-08-21T07:50:42;3.97;;;1.20;;
22164;SDS011;11248;52.512;13.520;2022-08-21T07:53:08;3.53;;;1.38;;
22164;SDS011;11248;52.512;13.520;2022-08-21T07:55:34;5.10;;;1.30;;
22164;SDS011;11248;52.512;13.520;2022-08-21T07:58:00;4.45;;;1.27;;
22164;SDS011;11248;52.512;13.520;2022-08-21T08:00:27;3.40;;;1.20;;
22164;SDS011;11248;52.512;13.520;2022-08-21T08:02:54;3.33;;;1.20;;
22164;SDS011;11248;52.512;13.520;2022-08-21T08:05:22;3.63;;;1.40;;
22164;SDS011;11248;52.512;13.520;2022-08-21T08:07:48;4.68;;;1.20;;
22164;SDS011;11248;52.512;13.520;2022-08-21T08:10:14;2.38;;;1.35;;
22164;SDS011;11248;52.512;13.520;2022-08-21T08:12:41;4.25;;;1.48;;
22164;SDS011;11248;52.512;13.520;2022-08-21T08:15:09;3.05;;;1.23;;
22164;SDS011;11248;52.512;13.520;2022-08-21T08:17:35;2.03;;;1.10;;
22164;SDS011;11248;52.512;13.520;2022-08-21T08:20:03;2.72;;;1.35;;
22164;SDS011;11248;52.512;13.520;2022-08-21T08:22:29;5.80;;;1.17;;
22164;SDS011;11248;52.512;13.520;2022-08-21T08:24:55;3.25;;;1.30;;
22164;SDS011;11248;52.512;13.520;2022-08-21T08:27:21;3.50;;;1.27;;
22164;SDS011;11248;52.512;13.520;2022-08-21T08:29:47;2.45;;;1.10;;
22164;SDS011;11248;52.512;13.520;2022-08-21T08:32:14;4.53;;;1.40;;
22164;SDS011;11248;52.512;13.520;2022-08-21T08:34:40;2.67;;;1.30;;
22164;SDS011;11248;52.512;13.520;2022-08-21T08:37:07;4.45;;;1.35;;
22164;SDS011;11248;52.512;13.520;2022-08-21T08:39:33;6.45;;;1.15;;
22164;SDS011;11248;52.512;13.520;2022-08-21T08:42:03;3.13;;;1.48;;
22164;SDS011;11248;52.512;13.520;2022-08-21T08:44:30;6.30;;;1.42;;
22164;SDS011;11248;52.512;13.520;2022-08-21T08:46:56;3.13;;;0.98;;
22164;SDS011;11248;52.512;13.520;2022-08-21T08:49:26;3.00;;;1.33;;
22164;SDS011;11248;52.512;13.520;2022-08-21T08:54:42;4.78;;;1.33;;
22164;SDS011;11248;52.512;13.520;2022-08-21T08:57:10;4.18;;;1.10;;
22164;SDS011;11248;52.512;13.520;2022-08-21T08:59:41;4.00;;;1.30;;
22164;SDS011;11248;52.512;13.520;2022-08-21T09:02:09;3.78;;;1.30;;
22164;SDS011;11248;52.512;13.520;2022-08-21T09:04:36;4.38;;;1.45;;
22164;SDS011;11248;52.512;13.520;2022-08-21T09:25:22;4.07;;;1.70;;
22164;SDS011;11248;52.512;13.520;2022-08-21T09:27:48;3.08;;;1.15;;
22164;SDS011;11248;52.512;13.520;2022-08-21T09:30:15;3.30;;;1.15;;
22164;SDS011;11248;52.512;13.520;2022-08-21T09:32:41;3.58;;;1.48;;
22164;SDS011;11248;52.512;13.520;2022-08-21T09:37:34;2.25;;;1.27;;
22164;SDS011;11248;52.512;13.520;2022-08-21T09:40:01;3.30;;;1.20;;
22164;SDS011;11248;52.512;13.520;2022-08-21T09:42:29;3.00;;;1.33;;
22164;SDS011;11248;52.512;13.520;2022-08-21T09:45:05;3.20;;;1.02;;
22164;SDS011;11248;52.512;13.520;2022-08-21T09:47:32;3.83;;;1.27;;
22164;SDS011;11248;52.512;13.520;2022-08-21T09:50:06;3.38;;;1.30;;
22164;SDS011;11248;52.512;13.520;2022-08-21T09:52:32;2.90;;;1.40;;
22164;SDS011;11248;52.512;13.520;2022-08-21T09:54:58;3.97;;;1.20;;
22164;SDS011;11248;52.512;13.520;2022-08-21T09:57:26;2.97;;;1.30;;
22164;SDS011;11248;52.512;13.520;2022-08-21T10:00:24;1.00;;;0.77;;
22164;SDS011;11248;52.512;13.520;2022-08-21T10:02:50;4.07;;;1.52;;
22164;SDS011;11248;52.512;13.520;2022-08-21T10:05:21;3.30;;;1.30;;
22164;SDS011;11248;52.512;13.520;2022-08-21T10:07:47;2.88;;;1.30;;
22164;SDS011;11248;52.512;13.520;2022-08-21T10:10:18;2.92;;;1.30;;
22164;SDS011;11248;52.512;13.520;2022-08-21T10:15:40;2.92;;;1.10;;
22164;SDS011;11248;52.512;13.520;2022-08-21T10:18:13;3.25;;;1.23;;
22164;SDS011;11248;52.512;13.520;2022-08-21T10:20:44;2.80;;;1.07;;
22164;SDS011;11248;52.512;13.520;2022-08-21T10:23:33;2.65;;;1.20;;
22164;SDS011;11248;52.512;13.520;2022-08-21T10:26:05;5.00;;;1.27;;
22164;SDS011;11248;52.512;13.520;2022-08-21T10:31:04;4.05;;;1.17;;
22164;SDS011;11248;52.512;13.520;2022-08-21T10:36:18;1.75;;;1.00;;
22164;SDS011;11248;52.512;13.520;2022-08-21T10:38:49;2.97;;;1.60;;
22164;SDS011;11248;52.512;13.520;2022-08-21T10:41:30;6.65;;;1.48;;
22164;SDS011;11248;52.512;13.520;2022-08-21T10:46:37;2.33;;;1.10;;
22164;SDS011;11248;52.512;13.520;2022-08-21T10:54:51;4.05;;;1.50;;
22164;SDS011;11248;52.512;13.520;2022-08-21T10:57:21;5.75;;;1.20;;
22164;SDS011;11248;52.512;13.520;2022-08-21T10:59:49;3.35;;;1.30;;
22164;SDS011;11248;52.512;13.520;2022-08-21T11:02:21;3.33;;;1.55;;
22164;SDS011;11248;52.512;13.520;2022-08-21T11:07:22;3.72;;;1.38;;
22164;SDS011;11248;52.512;13.520;2022-08-21T11:09:51;3.47;;;1.20;;
22164;SDS011;11248;52.512;13.520;2022-08-21T11:12:31;2.88;;;1.25;;
22164;SDS011;11248;52.512;13.520;2022-08-21T11:17:38;2.33;;;1.13;;
22164;SDS011;11248;52.512;13.520;2022-08-21T11:20:07;1.98;;;1.05;;
22164;SDS011;11248;52.512;13.520;2022-08-21T11:25:11;2.30;;;1.27;;
22164;SDS011;11248;52.512;13.520;2022-08-21T11:27:43;2.08;;;1.20;;
22164;SDS011;11248;52.512;13.520;2022-08-21T11:30:10;3.15;;;1.25;;
22164;SDS011;11248;52.512;13.520;2022-08-21T11:35:33;1.70;;;0.90;;
22164;SDS011;11248;52.512;13.520;2022-08-21T11:38:03;5.90;;;1.25;;
22164;SDS011;11248;52.512;13.520;2022-08-21T11:43:09;3.72;;;1.38;;
22164;SDS011;11248;52.512;13.520;2022-08-21T11:45:45;2.95;;;1.45;;
22164;SDS011;11248;52.512;13.520;2022-08-21T11:50:40;2.80;;;1.30;;
22164;SDS011;11248;52.512;13.520;2022-08-21T11:53:28;5.75;;;1.70;;
22164;SDS011;11248;52.512;13.520;2022-08-21T11:58:25;2.53;;;1.10;;
22164;SDS011;11248;52.512;13.520;2022-08-21T12:00:56;1.15;;;1.00;;
22164;SDS011;11248;52.512;13.520;2022-08-21T12:03:25;2.63;;;1.02;;
22164;SDS011;11248;52.512;13.520;2022-08-21T12:05:56;1.98;;;1.00;;
22164;SDS011;11248;52.512;13.520;2022-08-21T12:11:00;3.60;;;1.02;;
22164;SDS011;11248;52.512;13.520;2022-08-21T12:13:27;2.67;;;0.93;;
22164;SDS011;11248;52.512;13.520;2022-08-21T12:16:27;3.08;;;1.10;;
22164;SDS011;11248;52.512;13.520;2022-08-21T12:18:42;2.30;;;1.10;;
22164;SDS011;11248;52.512;13.520;2022-08-21T12:21:20;1.55;;;1.00;;
22164;SDS011;11248;52.512;13.520;2022-08-21T12:23:48;1.50;;;0.90;;
22164;SDS011;11248;52.512;13.520;2022-08-21T12:26:20;1.83;;;1.10;;
22164;SDS011;11248;52.512;13.520;2022-08-21T12:28:48;2.40;;;1.10;;
22164;SDS011;11248;52.512;13.520;2022-08-21T12:31:22;1.17;;;0.90;;
22164;SDS011;11248;52.512;13.520;2022-08-21T12:33:50;3.60;;;1.10;;
22164;SDS011;11248;52.512;13.520;2022-08-21T12:36:18;3.60;;;1.13;;
22164;SDS011;11248;52.512;13.520;2022-08-21T12:39:02;2.05;;;0.93;;
22164;SDS011;11248;52.512;13.520;2022-08-21T12:41:37;2.50;;;0.90;;
22164;SDS011;11248;52.512;13.520;2022-08-21T12:44:10;1.15;;;0.88;;
22164;SDS011;11248;52.512;13.520;2022-08-21T12:46:50;0.77;;;0.70;;
22164;SDS011;11248;52.512;13.520;2022-08-21T12:49:30;1.17;;;0.80;;
22164;SDS011;11248;52.512;13.520;2022-08-21T12:52:01;1.17;;;0.80;;
22164;SDS011;11248;52.512;13.520;2022-08-21T12:54:29;1.15;;;0.90;;
22164;SDS011;11248;52.512;13.520;2022-08-21T12:56:56;0.63;;;0.60;;
22164;SDS011;11248;52.512;13.520;2022-08-21T12:59:22;1.70;;;1.00;;
22164;SDS011;11248;52.512;13.520;2022-08-21T13:01:49;0.80;;;0.68;;
22164;SDS011;11248;52.512;13.520;2022-08-21T13:04:17;1.73;;;0.90;;
22164;SDS011;11248;52.512;13.520;2022-08-21T13:06:49;1.40;;;0.82;;
22164;SDS011;11248;52.512;13.520;2022-08-21T13:09:16;1.55;;;0.90;;
22164;SDS011;11248;52.512;13.520;2022-08-21T13:11:44;1.85;;;0.90;;
22164;SDS011;11248;52.512;13.520;2022-08-21T13:14:14;1.95;;;0.80;;
22164;SDS011;11248;52.512;13.520;2022-08-21T13:16:43;1.88;;;0.80;;
22164;SDS011;11248;52.512;13.520;2022-08-21T13:19:11;1.08;;;0.60;;
22164;SDS011;11248;52.512;13.520;2022-08-21T13:21:41;0.85;;;0.57;;
22164;SDS011;11248;52.512;13.520;2022-08-21T13:26:46;1.30;;;0.65;;
22164;SDS011;11248;52.512;13.520;2022-08-21T13:29:14;1.50;;;0.77;;
22164;SDS011;11248;52.512;13.520;2022-08-21T13:31:46;1.13;;;0.82;;
22164;SDS011;11248;52.512;13.520;2022-08-21T13:34:12;1.08;;;0.70;;
22164;SDS011;11248;52.512;13.520;2022-08-21T13:36:41;1.50;;;1.00;;
22164;SDS011;11248;52.512;13.520;2022-08-21T13:39:07;0.95;;;0.65;;
22164;SDS011;11248;52.512;13.520;2022-08-21T13:41:37;0.70;;;0.70;;
22164;SDS011;11248;52.512;13.520;2022-08-21T13:44:05;1.95;;;0.73;;
22164;SDS011;11248;52.512;13.520;2022-08-21T13:46:32;1.67;;;0.90;;
22164;SDS011;11248;52.512;13.520;2022-08-21T13:48:59;2.10;;;0.95;;
22164;SDS011;11248;52.512;13.520;2022-08-21T13:51:26;2.45;;;0.82;;
22164;SDS011;11248;52.512;13.520;2022-08-21T13:53:52;3.05;;;1.38;;
22164;SDS011;11248;52.512;13.520;2022-08-21T13:56:21;1.77;;;0.90;;
22164;SDS011;11248;52.512;13.520;2022-08-21T13:58:47;1.45;;;0.80;;
22164;SDS011;11248;52.512;13.520;2022-08-21T14:01:25;1.10;;;0.75;;
22164;SDS011;11248;52.512;13.520;2022-08-21T14:03:53;1.90;;;0.80;;
22164;SDS011;11248;52.512;13.520;2022-08-21T14:06:23;2.72;;;0.85;;
22164;SDS011;11248;52.512;13.520;2022-08-21T14:08:50;1.65;;;0.82;;
22164;SDS011;11248;52.512;13.520;2022-08-21T14:11:18;2.60;;;1.00;;
22164;SDS011;11248;52.512;13.520;2022-08-21T14:13:48;1.92;;;1.10;;
22164;SDS011;11248;52.512;13.520;2022-08-21T14:16:19;2.05;;;1.00;;
22164;SDS011;11248;52.512;13.520;2022-08-21T14:18:51;1.98;;;1.02;;
22164;SDS011;11248;52.512;13.520;2022-08-21T14:21:24;2.30;;;1.10;;
22164;SDS011;11248;52.512;13.520;2022-08-21T14:24:05;1.88;;;1.02;;
22164;SDS011;11248;52.512;13.520;2022-08-21T14:26:31;2.53;;;1.13;;
22164;SDS011;11248;52.512;13.520;2022-08-21T14:28:58;2.17;;;1.13;;
22164;SDS011;11248;52.512;13.520;2022-08-21T14:31:28;1.45;;;0.80;;
22164;SDS011;11248;52.512;13.520;2022-08-21T14:33:54;6.03;;;1.33;;
22164;SDS011;11248;52.512;13.520;2022-08-21T14:36:20;2.53;;;0.95;;
22164;SDS011;11248;52.512;13.520;2022-08-21T14:38:46;2.17;;;1.20;;
22164;SDS011;11248;52.512;13.520;2022-08-21T14:41:16;1.25;;;0.90;;
22164;SDS011;11248;52.512;13.520;2022-08-21T14:43:43;1.83;;;1.10;;
22164;SDS011;11248;52.512;13.520;2022-08-21T14:46:10;2.17;;;1.08;;
22164;SDS011;11248;52.512;13.520;2022-08-21T14:48:36;1.65;;;1.00;;
22164;SDS011;11248;52.512;13.520;2022-08-21T14:51:02;1.50;;;1.27;;
22164;SDS011;11248;52.512;13.520;2022-08-21T14:53:28;2.63;;;0.80;;
22164;SDS011;11248;52.512;13.520;2022-08-21T14:55:54;1.75;;;1.10;;
22164;SDS011;11248;52.512;13.520;2022-08-21T14:58:32;3.10;;;1.15;;
22164;SDS011;11248;52.512;13.520;2022-08-21T15:00:59;3.70;;;1.30;;
22164;SDS011;11248;52.512;13.520;2022-08-21T15:03:28;2.80;;;1.00;;
22164;SDS011;11248;52.512;13.520;2022-08-21T15:05:54;1.50;;;1.10;;
22164;SDS011;11248;52.512;13.520;2022-08-21T15:08:20;3.35;;;1.13;;
22164;SDS011;11248;52.512;13.520;2022-08-21T15:10:46;2.95;;;1.10;;
22164;SDS011;11248;52.512;13.520;2022-08-21T15:13:12;1.45;;;1.00;;
22164;SDS011;11248;52.512;13.520;2022-08-21T15:15:39;2.95;;;1.30;;
22164;SDS011;11248;52.512;13.520;2022-08-21T15:18:05;2.05;;;1.13;;
22164;SDS011;11248;52.512;13.520;2022-08-21T15:20:32;2.80;;;1.40;;
22164;SDS011;11248;52.512;13.520;2022-08-21T15:22:58;1.48;;;0.90;;
22164;SDS011;11248;52.512;13.520;2022-08-21T15:25:24;1.60;;;1.00;;
22164;SDS011;11248;52.512;13.520;2022-08-21T15:27:50;2.45;;;1.10;;
22164;SDS011;11248;52.512;13.520;2022-08-21T15:30:16;1.85;;;1.00;;
22164;SDS011;11248;52.512;13.520;2022-08-21T15:32:42;2.53;;;1.30;;
22164;SDS011;11248;52.512;13.520;2022-08-21T15:35:08;2.08;;;1.30;;
22164;SDS011;11248;52.512;13.520;2022-08-21T15:37:33;3.72;;;1.35;;
22164;SDS011;11248;52.512;13.520;2022-08-21T15:39:59;1.73;;;1.17;;